createdAt,value
2022-12-13T00:02:00.100Z,-1.54
2022-12-13T00:04:24.194Z,-1.51
2022-12-13T00:06:48.519Z,-1.56
2022-12-13T00:09:18.930Z,-1.55
2022-12-13T00:11:42.041Z,-1.54
2022-12-13T00:14:04.706Z,-1.61
2022-12-13T00:16:27.899Z,-1.62
2022-12-13T00:18:55.527Z,-1.63
2022-12-13T00:21:19.943Z,-1.63
2022-12-13T00:23:42.519Z,-1.66
2022-12-13T00:26:11.535Z,-1.65
2022-12-13T00:28:34.461Z,-1.68
2022-12-13T00:31:19.658Z,-1.71
2022-12-13T00:33:44.288Z,-1.66
2022-12-13T00:36:07.833Z,-1.73
2022-12-13T00:38:30.370Z,-1.79
2022-12-13T00:40:53.816Z,-1.78
2022-12-13T00:43:16.684Z,-1.82
2022-12-13T00:45:39.604Z,-1.86
2022-12-13T00:48:02.216Z,-1.87
2022-12-13T00:50:25.341Z,-1.85
2022-12-13T00:52:47.895Z,-1.82
2022-12-13T00:55:10.630Z,-1.85
2022-12-13T00:57:34.051Z,-1.91
2022-12-13T00:59:57.347Z,-1.85
2022-12-13T01:02:20.000Z,-1.83
2022-12-13T01:04:42.753Z,-1.96
2022-12-13T01:07:05.290Z,-1.99
2022-12-13T01:09:29.888Z,-1.97
2022-12-13T01:11:59.972Z,-2.01
2022-12-13T01:14:22.537Z,-1.99
2022-12-13T01:16:45.190Z,-2.00
2022-12-13T01:19:07.812Z,-1.94
2022-12-13T01:21:30.633Z,-1.94
2022-12-13T01:23:53.229Z,-2.01
2022-12-13T01:26:19.422Z,-1.99
2022-12-13T01:28:44.250Z,-2.03
2022-12-13T01:31:11.279Z,-2.03
2022-12-13T01:33:34.485Z,-2.04
2022-12-13T01:35:57.371Z,-2.03
2022-12-13T01:38:20.664Z,-2.04
2022-12-13T01:40:58.975Z,-2.07
2022-12-13T01:43:22.272Z,-2.17
2022-12-13T01:45:45.031Z,-2.24
2022-12-13T01:48:21.097Z,-2.27
2022-12-13T01:50:48.658Z,-2.24
2022-12-13T01:53:16.764Z,-2.18
2022-12-13T01:55:42.132Z,-2.26
2022-12-13T01:58:05.873Z,-2.23
2022-12-13T02:00:29.479Z,-2.15
2022-12-13T02:02:54.138Z,-2.21
2022-12-13T02:05:30.802Z,-2.28
2022-12-13T02:07:53.924Z,-2.21
2022-12-13T02:10:17.640Z,-2.33
2022-12-13T02:12:41.671Z,-2.36
2022-12-13T02:15:11.933Z,-2.40
2022-12-13T02:17:58.549Z,-2.42
2022-12-13T02:20:54.013Z,-2.48
2022-12-13T02:23:35.084Z,-2.41
2022-12-13T02:26:15.951Z,-2.45
2022-12-13T02:29:06.004Z,-2.45
2022-12-13T02:31:35.761Z,-2.41
2022-12-13T02:34:07.183Z,-2.40
2022-12-13T02:36:36.285Z,-2.42
2022-12-13T02:39:07.569Z,-2.45
2022-12-13T02:41:49.752Z,-2.47
2022-12-13T02:44:26.651Z,-2.48
2022-12-13T02:47:00.117Z,-2.54
2022-12-13T02:49:25.648Z,-2.55
2022-12-13T02:51:50.201Z,-2.49
2022-12-13T02:54:13.007Z,-2.47
2022-12-13T02:56:35.861Z,-2.55
2022-12-13T02:59:01.519Z,-2.59
2022-12-13T03:01:47.869Z,-2.69
2022-12-13T03:05:10.365Z,-2.70
2022-12-13T03:07:53.315Z,-2.82
2022-12-13T03:10:22.953Z,-2.87
2022-12-13T03:13:37.225Z,-2.85
2022-12-13T03:16:05.247Z,-2.89
2022-12-13T03:18:28.951Z,-2.99
2022-12-13T03:21:13.346Z,-3.03
2022-12-13T03:23:37.293Z,-2.99
2022-12-13T03:26:05.500Z,-3.01
2022-12-13T03:28:28.388Z,-2.96
2022-12-13T03:30:51.262Z,-2.95
2022-12-13T03:33:14.369Z,-2.90
2022-12-13T03:35:44.360Z,-2.85
2022-12-13T03:38:08.507Z,-2.76
2022-12-13T03:40:32.502Z,-2.86
2022-12-13T03:43:01.763Z,-2.86
2022-12-13T03:45:24.361Z,-2.85
2022-12-13T03:47:47.246Z,-2.89
2022-12-13T03:50:28.380Z,-2.75
2022-12-13T03:52:52.051Z,-2.72
2022-12-13T03:55:15.031Z,-2.76
2022-12-13T03:57:37.937Z,-2.70
2022-12-13T04:00:05.042Z,-2.72
2022-12-13T04:02:36.434Z,-2.82
2022-12-13T04:05:00.835Z,-2.75
2022-12-13T04:07:23.595Z,-2.76
2022-12-13T04:09:47.430Z,-2.70
2022-12-13T04:12:28.356Z,-2.68
2022-12-13T04:14:51.138Z,-2.58
2022-12-13T04:17:13.665Z,-2.73
2022-12-13T04:19:36.264Z,-2.68
2022-12-13T04:21:58.891Z,-2.92
2022-12-13T04:24:31.278Z,-2.79
2022-12-13T04:26:54.690Z,-2.82
2022-12-13T04:29:17.596Z,-2.95
2022-12-13T04:31:40.427Z,-2.96
2022-12-13T04:34:03.237Z,-3.03
2022-12-13T04:36:31.402Z,-3.18
2022-12-13T04:38:55.611Z,-3.24
2022-12-13T04:41:23.466Z,-3.25
2022-12-13T04:43:52.197Z,-3.25
2022-12-13T04:46:14.841Z,-3.23
2022-12-13T04:48:37.429Z,-3.27
2022-12-13T04:51:01.660Z,-3.24
2022-12-13T04:53:24.288Z,-3.28
2022-12-13T04:55:46.925Z,-3.28
2022-12-13T04:58:09.535Z,-3.30
2022-12-13T05:00:32.121Z,-3.31
2022-12-13T05:02:54.859Z,-3.31
2022-12-13T05:05:18.160Z,-3.23
2022-12-13T05:07:42.377Z,-3.23
2022-12-13T05:10:06.361Z,-3.21
2022-12-13T05:12:29.582Z,-3.17
2022-12-13T05:14:53.132Z,-3.28
2022-12-13T05:17:15.704Z,-3.23
2022-12-13T05:19:38.481Z,-3.37
2022-12-13T05:22:01.890Z,-3.47
2022-12-13T05:24:24.802Z,-3.52
2022-12-13T05:26:47.393Z,-3.47
2022-12-13T05:29:10.450Z,-3.27
2022-12-13T05:31:33.075Z,-3.23
2022-12-13T05:33:55.714Z,-3.20
2022-12-13T05:36:25.575Z,-3.24
2022-12-13T05:38:48.201Z,-3.27
2022-12-13T05:41:16.896Z,-3.31
2022-12-13T05:43:42.268Z,-3.34
2022-12-13T05:46:05.928Z,-3.35
2022-12-13T05:48:28.736Z,-3.51
2022-12-13T05:50:51.220Z,-3.44
2022-12-13T05:53:14.074Z,-3.47
2022-12-13T05:55:53.636Z,-3.61
2022-12-13T05:58:23.026Z,-3.62
2022-12-13T06:00:46.159Z,-3.65
2022-12-13T06:03:08.979Z,-3.65
2022-12-13T06:05:31.970Z,-3.71
2022-12-13T06:07:57.584Z,-3.78
2022-12-13T06:10:21.926Z,-3.81
2022-12-13T06:12:45.034Z,-3.79
2022-12-13T06:15:21.621Z,-3.78
2022-12-13T06:17:45.506Z,-3.73
2022-12-13T06:20:23.588Z,-3.63
2022-12-13T06:22:47.431Z,-3.68
2022-12-13T06:25:30.844Z,-3.68
2022-12-13T06:27:53.611Z,-3.62
2022-12-13T06:30:16.693Z,-3.58
2022-12-13T06:32:43.836Z,-3.51
2022-12-13T06:35:28.939Z,-3.44
2022-12-13T06:37:53.137Z,-3.38
2022-12-13T06:40:22.861Z,-3.38
2022-12-13T06:42:46.131Z,-3.34
2022-12-13T06:45:09.181Z,-3.30
2022-12-13T06:47:32.654Z,-3.17
2022-12-13T06:49:55.618Z,-3.16
2022-12-13T06:52:29.525Z,-3.11
2022-12-13T06:54:55.519Z,-3.10
2022-12-13T06:57:22.659Z,-3.10
2022-12-13T06:59:47.067Z,-3.08
2022-12-13T07:02:24.299Z,-2.86
2022-12-13T07:04:48.257Z,-2.64
2022-12-13T07:07:11.035Z,-2.48
2022-12-13T07:09:33.955Z,-2.37
2022-12-13T07:11:58.108Z,-2.30
2022-12-13T07:14:20.957Z,-2.30
2022-12-13T07:16:43.520Z,-2.23
2022-12-13T07:19:22.469Z,-2.18
2022-12-13T07:21:47.284Z,-2.10
2022-12-13T07:24:30.634Z,-2.01
2022-12-13T07:26:53.292Z,-1.87
2022-12-13T07:29:22.183Z,-1.76
2022-12-13T07:31:45.505Z,-1.80
2022-12-13T07:34:11.659Z,-1.80
2022-12-13T07:36:36.841Z,-1.73
2022-12-13T07:39:00.394Z,-1.79
2022-12-13T07:41:25.016Z,-1.71
2022-12-13T07:43:49.840Z,-1.65
2022-12-13T07:46:22.415Z,-1.68
2022-12-13T07:48:54.977Z,-1.66
2022-12-13T07:51:24.501Z,-1.59
2022-12-13T07:53:47.444Z,-1.63
2022-12-13T07:56:12.130Z,-1.54
2022-12-13T07:58:37.103Z,-1.51
2022-12-13T08:01:10.013Z,-1.50
2022-12-13T08:03:33.069Z,-1.59
2022-12-13T08:06:14.007Z,-1.56
2022-12-13T08:08:38.765Z,-1.48
2022-12-13T08:11:09.295Z,-1.48
2022-12-13T08:13:32.437Z,-1.37
2022-12-13T08:16:02.703Z,-1.38
2022-12-13T08:18:30.767Z,-1.28
2022-12-13T08:20:53.414Z,-1.30
2022-12-13T08:23:17.120Z,-1.35
2022-12-13T08:25:43.586Z,-1.32
2022-12-13T08:28:06.385Z,-1.24
2022-12-13T08:30:31.182Z,-1.28
2022-12-13T08:32:53.813Z,-1.27
2022-12-13T08:35:16.514Z,-1.21
2022-12-13T08:37:39.347Z,-1.08
2022-12-13T08:40:07.971Z,-1.01
2022-12-13T08:42:31.455Z,-0.90
2022-12-13T08:44:54.342Z,-0.93
2022-12-13T08:47:22.982Z,-0.96
2022-12-13T08:49:51.213Z,-0.68
2022-12-13T08:52:14.050Z,-0.73
2022-12-13T08:54:36.974Z,-0.69
2022-12-13T08:56:59.788Z,-0.54
2022-12-13T08:59:25.362Z,-0.49
2022-12-13T09:01:48.159Z,-0.52
2022-12-13T09:04:18.749Z,-0.34
2022-12-13T09:06:54.802Z,-0.25
2022-12-13T09:09:17.480Z,-0.27
2022-12-13T09:11:43.649Z,-0.19
2022-12-13T09:14:06.746Z,-0.14
2022-12-13T09:16:36.858Z,0.06
2022-12-13T09:18:59.852Z,0.14
2022-12-13T09:21:32.295Z,0.24
2022-12-13T09:24:01.346Z,0.22
2022-12-13T09:26:25.681Z,0.21
2022-12-13T09:28:48.400Z,0.10
2022-12-13T09:31:17.433Z,0.09
2022-12-13T09:33:40.479Z,0.06
2022-12-13T09:36:07.304Z,0.17
2022-12-13T09:38:31.150Z,0.15
2022-12-13T09:41:01.297Z,0.27
2022-12-13T09:43:42.659Z,0.49
2022-12-13T09:46:22.927Z,0.45
2022-12-13T09:48:48.636Z,0.52
2022-12-13T09:51:18.296Z,0.64
2022-12-13T09:53:55.101Z,0.61
2022-12-13T09:56:20.176Z,0.75
2022-12-13T09:58:43.285Z,0.92
2022-12-13T10:01:06.767Z,0.86
2022-12-13T10:03:30.095Z,0.70
2022-12-13T10:06:01.022Z,0.85
2022-12-13T10:08:28.891Z,0.86
2022-12-13T10:10:53.326Z,0.82
2022-12-13T10:13:30.291Z,0.87
2022-12-13T10:16:04.256Z,1.08
2022-12-13T10:18:36.581Z,1.08
2022-12-13T10:21:01.609Z,1.04
2022-12-13T10:23:42.742Z,0.93
2022-12-13T10:26:14.767Z,1.13
2022-12-13T10:28:47.901Z,1.16
2022-12-13T10:31:20.429Z,1.33
2022-12-13T10:33:55.678Z,1.35
2022-12-13T10:36:38.449Z,1.37
2022-12-13T10:39:01.799Z,1.33
2022-12-13T10:41:37.151Z,1.23
2022-12-13T10:44:11.840Z,1.24
2022-12-13T10:46:38.358Z,1.37
2022-12-13T10:49:01.572Z,1.26
2022-12-13T10:51:24.482Z,1.33
2022-12-13T10:53:50.475Z,1.28
2022-12-13T10:56:13.546Z,1.31
2022-12-13T10:58:47.996Z,1.37
2022-12-13T11:01:21.825Z,1.35
2022-12-13T11:04:07.087Z,1.44
2022-12-13T11:06:43.264Z,1.61
2022-12-13T11:09:24.008Z,1.66
2022-12-13T11:11:50.108Z,1.61
2022-12-13T11:14:31.629Z,1.61
2022-12-13T11:16:58.485Z,1.52
2022-12-13T11:19:25.843Z,1.55
2022-12-13T11:21:50.396Z,1.76
2022-12-13T11:24:22.875Z,1.83
2022-12-13T11:26:53.803Z,1.76
2022-12-13T11:29:30.075Z,1.82
2022-12-13T11:32:29.154Z,1.89
2022-12-13T11:35:04.624Z,1.83
2022-12-13T11:38:09.068Z,1.83
2022-12-13T11:40:44.264Z,1.87
2022-12-13T11:43:38.628Z,1.89
2022-12-13T11:46:05.882Z,1.83
2022-12-13T11:48:51.375Z,1.79
2022-12-13T11:51:21.275Z,1.79
2022-12-13T11:53:59.169Z,1.91
2022-12-13T11:56:38.735Z,1.96
2022-12-13T11:59:26.888Z,2.02
2022-12-13T12:02:05.063Z,2.00
2022-12-13T12:04:45.781Z,2.12
2022-12-13T12:07:31.698Z,2.02
2022-12-13T12:10:04.081Z,1.87
2022-12-13T12:12:33.676Z,2.05
2022-12-13T12:14:58.106Z,1.92
2022-12-13T12:17:33.575Z,1.99
2022-12-13T12:20:00.964Z,1.73
2022-12-13T12:22:45.254Z,1.93
2022-12-13T12:25:16.313Z,1.91
2022-12-13T12:28:23.555Z,1.95
2022-12-13T12:31:14.351Z,1.86
2022-12-13T12:33:45.845Z,2.05
2022-12-13T12:36:17.792Z,2.06
2022-12-13T12:39:16.672Z,1.99
2022-12-13T12:41:51.514Z,2.12
2022-12-13T12:44:36.117Z,2.24
2022-12-13T12:47:32.557Z,2.33
2022-12-13T12:50:05.295Z,2.26
2022-12-13T12:52:43.531Z,2.06
2022-12-13T12:55:50.888Z,2.07
2022-12-13T12:58:35.040Z,2.10
2022-12-13T13:01:32.329Z,2.07
2022-12-13T13:04:02.075Z,1.98
2022-12-13T13:06:31.134Z,1.73
2022-12-13T13:08:59.444Z,1.81
2022-12-13T13:11:25.930Z,2.02
2022-12-13T13:14:07.110Z,1.96
2022-12-13T13:16:40.345Z,1.91
2022-12-13T13:19:25.701Z,1.71
2022-12-13T13:21:54.163Z,1.86
2022-12-13T13:24:20.186Z,1.64
2022-12-13T13:26:54.832Z,1.85
2022-12-13T13:29:28.141Z,1.58
2022-12-13T13:32:11.449Z,1.68
2022-12-13T13:34:43.789Z,1.79
2022-12-13T13:37:23.192Z,1.87
2022-12-13T13:39:55.775Z,1.91
2022-12-13T13:42:21.414Z,1.66
2022-12-13T13:44:50.436Z,1.72
2022-12-13T13:47:21.531Z,1.81
2022-12-13T13:50:18.766Z,1.75
2022-12-13T13:52:44.481Z,1.86
2022-12-13T13:55:26.509Z,1.82
2022-12-13T13:58:10.110Z,1.73
2022-12-13T14:00:56.267Z,1.78
2022-12-13T14:03:44.546Z,1.71
2022-12-13T14:06:16.531Z,1.81
2022-12-13T14:09:03.363Z,1.66
2022-12-13T14:11:47.850Z,1.54
2022-12-13T14:14:38.693Z,1.56
2022-12-13T14:17:10.624Z,1.45
2022-12-13T14:19:56.579Z,1.38
2022-12-13T14:22:35.020Z,1.40
2022-12-13T14:25:15.964Z,1.28
2022-12-13T14:27:45.120Z,1.20
2022-12-13T14:30:26.814Z,1.24
2022-12-13T14:32:52.590Z,1.07
2022-12-13T14:35:32.853Z,0.93
2022-12-13T14:37:59.996Z,0.89
2022-12-13T14:40:32.597Z,0.83
2022-12-13T14:42:55.445Z,0.64
2022-12-13T14:45:31.782Z,0.55
2022-12-13T14:47:56.935Z,0.49
2022-12-13T14:50:21.690Z,0.45
2022-12-13T14:52:46.276Z,0.40
2022-12-13T14:55:29.239Z,0.25
2022-12-13T14:57:57.237Z,0.18
2022-12-13T15:00:21.992Z,0.24
2022-12-13T15:02:51.606Z,0.14
2022-12-13T15:05:28.827Z,0.00
2022-12-13T15:07:53.308Z,-0.04
2022-12-13T15:10:53.482Z,-0.14
2022-12-13T15:13:35.407Z,-0.07
2022-12-13T15:16:11.247Z,-0.18
2022-12-13T15:18:37.628Z,-0.31
2022-12-13T15:21:25.167Z,-0.32
2022-12-13T15:24:14.299Z,-0.21
2022-12-13T15:26:37.964Z,-0.31
2022-12-13T15:29:09.444Z,-0.41
2022-12-13T15:31:36.614Z,-0.38
2022-12-13T15:34:28.639Z,-0.27
2022-12-13T15:36:52.399Z,-0.38
2022-12-13T15:39:18.490Z,-0.61
2022-12-13T15:41:49.204Z,-0.56
2022-12-13T15:44:29.122Z,-0.56
2022-12-13T15:47:01.926Z,-0.58
2022-12-13T15:49:34.667Z,-0.62
2022-12-13T15:52:01.524Z,-0.68
2022-12-13T15:54:24.804Z,-0.75
2022-12-13T15:57:16.359Z,-0.72
2022-12-13T15:59:40.114Z,-0.69
2022-12-13T16:02:04.071Z,-0.69
2022-12-13T16:04:35.475Z,-0.75
2022-12-13T16:06:59.860Z,-0.65
2022-12-13T16:09:25.729Z,-0.72
2022-12-13T16:11:59.151Z,-0.80
2022-12-13T16:14:30.699Z,-0.89
2022-12-13T16:16:54.722Z,-0.90
2022-12-13T16:19:20.625Z,-0.87
2022-12-13T16:21:45.392Z,-0.79
2022-12-13T16:24:08.790Z,-0.80
2022-12-13T16:26:34.352Z,-0.87
2022-12-13T16:29:00.496Z,-0.90
2022-12-13T16:31:28.550Z,-0.92
2022-12-13T16:33:51.859Z,-0.97
2022-12-13T16:36:15.675Z,-1.08
2022-12-13T16:38:39.252Z,-1.07
2022-12-13T16:41:09.478Z,-1.00
2022-12-13T16:43:37.291Z,-1.07
2022-12-13T16:47:14.383Z,-1.08
2022-12-13T16:48:54.519Z,-1.08
2022-12-13T16:51:18.402Z,-1.04
2022-12-13T16:53:41.408Z,-1.14
2022-12-13T16:56:22.863Z,-1.24
2022-12-13T16:59:04.729Z,-1.13
2022-12-13T17:01:29.428Z,-1.20
2022-12-13T17:03:52.926Z,-1.31
2022-12-13T17:06:23.093Z,-1.30
2022-12-13T17:08:45.996Z,-1.34
2022-12-13T17:11:17.516Z,-1.38
2022-12-13T17:13:44.702Z,-1.35
2022-12-13T17:16:08.006Z,-1.27
2022-12-13T17:18:31.120Z,-1.34
2022-12-13T17:20:58.970Z,-1.42
2022-12-13T17:23:22.220Z,-1.54
2022-12-13T17:25:45.244Z,-1.51
2022-12-13T17:28:21.348Z,-1.54
2022-12-13T17:30:48.584Z,-1.62
2022-12-13T17:33:18.626Z,-1.62
2022-12-13T17:35:53.286Z,-1.44
2022-12-13T17:38:16.030Z,-1.34
2022-12-13T17:40:40.814Z,-1.42
2022-12-13T17:43:07.684Z,-1.48
2022-12-13T17:45:30.458Z,-1.47
2022-12-13T17:47:53.459Z,-1.42
2022-12-13T17:50:22.066Z,-1.47
2022-12-13T17:53:04.871Z,-1.38
2022-12-13T17:55:30.504Z,-1.35
2022-12-13T17:57:59.800Z,-1.45
2022-12-13T18:00:31.286Z,-1.45
2022-12-13T18:03:13.715Z,-1.51
2022-12-13T18:06:17.554Z,-1.65
2022-12-13T18:08:42.473Z,-1.76
2022-12-13T18:13:49.923Z,-1.65
2022-12-13T18:16:19.628Z,-1.56
2022-12-13T18:18:42.886Z,-1.58
2022-12-13T18:21:21.780Z,-1.62
2022-12-13T18:23:45.214Z,-1.56
2022-12-13T18:26:19.787Z,-1.54
2022-12-13T18:28:44.197Z,-1.59
2022-12-13T18:31:10.533Z,-1.40
2022-12-13T18:33:34.381Z,-1.48
2022-12-13T18:35:58.407Z,-1.61
2022-12-13T18:38:23.318Z,-1.62
2022-12-13T18:40:50.323Z,-1.72
2022-12-13T18:43:14.121Z,-1.73
2022-12-13T18:45:37.269Z,-1.73
2022-12-13T18:48:00.305Z,-1.68
2022-12-13T18:50:25.709Z,-1.55
2022-12-13T18:52:49.104Z,-1.59
2022-12-13T18:55:12.295Z,-1.65
2022-12-13T18:57:36.311Z,-1.73
2022-12-13T19:00:00.306Z,-1.68
2022-12-13T19:02:23.884Z,-1.72
2022-12-13T19:04:55.535Z,-1.68
2022-12-13T19:07:20.291Z,-1.78
2022-12-13T19:09:44.470Z,-1.75
2022-12-13T19:12:17.848Z,-1.79
2022-12-13T19:14:40.895Z,-1.82
2022-12-13T19:17:03.726Z,-1.93
2022-12-13T19:19:27.453Z,-1.89
2022-12-13T19:21:50.195Z,-1.86
2022-12-13T19:24:13.947Z,-1.89
2022-12-13T19:26:36.971Z,-1.90
2022-12-13T19:28:59.905Z,-1.91
2022-12-13T19:31:28.530Z,-1.97
2022-12-13T19:33:55.934Z,-1.97
2022-12-13T19:36:18.575Z,-1.96
2022-12-13T19:38:42.384Z,-1.89
2022-12-13T19:41:11.755Z,-1.94
2022-12-13T19:43:34.575Z,-1.97
2022-12-13T19:45:57.459Z,-1.96
2022-12-13T19:48:20.711Z,-2.03
2022-12-13T19:51:02.737Z,-2.03
2022-12-13T19:53:25.800Z,-1.99
2022-12-13T19:55:48.857Z,-2.04
2022-12-13T19:58:11.792Z,-1.99
2022-12-13T20:00:36.873Z,-2.06
2022-12-13T20:03:19.521Z,-2.04
2022-12-13T20:06:02.647Z,-2.03
2022-12-13T20:08:45.966Z,-2.07
2022-12-13T20:11:28.453Z,-2.01
2022-12-13T20:14:10.949Z,-2.01
2022-12-13T20:16:53.420Z,-2.06
2022-12-13T20:19:35.919Z,-2.04
2022-12-13T20:21:59.594Z,-2.21
2022-12-13T20:24:22.843Z,-2.26
2022-12-13T20:26:46.087Z,-2.24
2022-12-13T20:29:13.445Z,-2.21
2022-12-13T20:31:39.220Z,-1.99
2022-12-13T20:34:06.752Z,-1.90
2022-12-13T20:36:31.585Z,-1.96
2022-12-13T20:39:00.623Z,-1.87
2022-12-13T20:41:25.507Z,-1.75
2022-12-13T20:43:52.516Z,-1.72
2022-12-13T20:46:15.696Z,-1.58
2022-12-13T20:48:41.225Z,-1.76
2022-12-13T20:51:07.293Z,-1.83
2022-12-13T20:53:35.697Z,-1.69
2022-12-13T20:55:58.724Z,-1.62
2022-12-13T20:58:21.715Z,-1.55
2022-12-13T21:00:44.757Z,-1.50
2022-12-13T21:03:07.603Z,-1.44
2022-12-13T21:05:30.536Z,-1.59
2022-12-13T21:08:11.632Z,-1.69
2022-12-13T21:10:34.369Z,-1.62
2022-12-13T21:12:57.110Z,-1.47
2022-12-13T21:15:19.898Z,-1.40
2022-12-13T21:17:42.428Z,-1.55
2022-12-13T21:20:05.604Z,-1.66
2022-12-13T21:22:28.527Z,-1.73
2022-12-13T21:24:51.205Z,-1.86
2022-12-13T21:27:13.793Z,-1.96
2022-12-13T21:29:36.651Z,-1.96
2022-12-13T21:31:59.304Z,-2.01
2022-12-13T21:34:22.395Z,-1.90
2022-12-13T21:36:47.211Z,-1.93
2022-12-13T21:39:27.849Z,-2.11
2022-12-13T21:41:51.444Z,-2.06
2022-12-13T21:44:16.279Z,-2.04
2022-12-13T21:49:21.702Z,-2.07
2022-12-13T21:51:48.134Z,-2.14
2022-12-13T21:54:11.151Z,-2.37
2022-12-13T21:56:52.622Z,-2.41
2022-12-13T21:59:17.066Z,-2.31
2022-12-13T22:02:08.973Z,-2.26
2022-12-13T22:04:32.385Z,-2.34
2022-12-13T22:06:56.462Z,-2.45
2022-12-13T22:09:19.120Z,-2.54
2022-12-13T22:11:41.748Z,-2.62
2022-12-13T22:14:05.099Z,-2.70
2022-12-13T22:16:29.078Z,-2.75
2022-12-13T22:18:55.273Z,-2.82
2022-12-13T22:21:17.815Z,-2.79
2022-12-13T22:23:40.444Z,-2.72
2022-12-13T22:26:06.467Z,-2.66
2022-12-13T22:28:29.700Z,-2.73
2022-12-13T22:30:55.320Z,-2.86
2022-12-13T22:33:17.914Z,-2.77
2022-12-13T22:35:40.420Z,-2.79
2022-12-13T22:38:02.956Z,-2.80
2022-12-13T22:40:25.529Z,-2.90
2022-12-13T22:42:48.426Z,-2.97
2022-12-13T22:45:11.281Z,-3.01
2022-12-13T22:47:33.824Z,-3.06
2022-12-13T22:49:56.461Z,-3.07
2022-12-13T22:52:20.212Z,-2.90
2022-12-13T22:54:42.814Z,-2.97
2022-12-13T22:57:05.514Z,-2.83
2022-12-13T22:59:28.167Z,-2.77
2022-12-13T23:01:50.842Z,-2.77
2022-12-13T23:04:13.381Z,-2.76
2022-12-13T23:06:37.622Z,-2.69
2022-12-13T23:09:02.720Z,-2.75
2022-12-13T23:11:44.507Z,-2.64
2022-12-13T23:14:09.821Z,-2.52
2022-12-13T23:16:33.402Z,-2.54
2022-12-13T23:19:24.148Z,-2.54
2022-12-13T23:21:41.274Z,-2.30
2022-12-13T23:24:04.665Z,-2.48
2022-12-13T23:26:29.466Z,-2.48
2022-12-13T23:28:54.203Z,-2.31
2022-12-13T23:31:18.147Z,-2.47
2022-12-13T23:33:41.026Z,-2.49
2022-12-13T23:36:09.964Z,-2.59
2022-12-13T23:38:32.876Z,-2.75
2022-12-13T23:41:05.722Z,-2.76
2022-12-13T23:43:30.408Z,-2.73
2022-12-13T23:45:52.994Z,-2.77
2022-12-13T23:48:15.740Z,-2.79
2022-12-13T23:50:38.492Z,-2.82
2022-12-13T23:53:01.446Z,-2.87
2022-12-13T23:55:23.984Z,-2.76
2022-12-13T23:57:46.816Z,-2.82
